sensor_id;sensor_type;location;lat;lon;timestamp;P1;durP1;ratioP1;P2;durP2;ratioP2
73150;SDS011;61354;50.758;6.106;2023-02-26T00:00:03;6.25;;;1.50;;
73150;SDS011;61354;50.758;6.106;2023-02-26T00:02:33;3.75;;;1.90;;
73150;SDS011;61354;50.758;6.106;2023-02-26T00:05:01;1.70;;;1.38;;
73150;SDS011;61354;50.758;6.106;2023-02-26T00:07:28;3.58;;;1.48;;
73150;SDS011;61354;50.758;6.106;2023-02-26T00:09:54;2.70;;;1.23;;
73150;SDS011;61354;50.758;6.106;2023-02-26T00:12:20;3.42;;;1.70;;
73150;SDS011;61354;50.758;6.106;2023-02-26T00:14:46;6.05;;;1.48;;
73150;SDS011;61354;50.758;6.106;2023-02-26T00:20:02;3.00;;;1.30;;
73150;SDS011;61354;50.758;6.106;2023-02-26T00:22:29;3.03;;;1.35;;
73150;SDS011;61354;50.758;6.106;2023-02-26T00:24:55;5.57;;;1.55;;
73150;SDS011;61354;50.758;6.106;2023-02-26T00:27:21;3.25;;;1.27;;
73150;SDS011;61354;50.758;6.106;2023-02-26T00:29:46;2.42;;;1.13;;
73150;SDS011;61354;50.758;6.106;2023-02-26T00:32:12;3.65;;;1.70;;
73150;SDS011;61354;50.758;6.106;2023-02-26T00:34:38;3.30;;;1.50;;
73150;SDS011;61354;50.758;6.106;2023-02-26T00:40:02;3.25;;;1.77;;
73150;SDS011;61354;50.758;6.106;2023-02-26T00:42:33;3.17;;;1.50;;
73150;SDS011;61354;50.758;6.106;2023-02-26T00:44:59;2.83;;;1.48;;
73150;SDS011;61354;50.758;6.106;2023-02-26T00:47:32;4.82;;;1.85;;
73150;SDS011;61354;50.758;6.106;2023-02-26T00:55:21;4.50;;;1.60;;
73150;SDS011;61354;50.758;6.106;2023-02-26T00:57:47;5.20;;;1.88;;
73150;SDS011;61354;50.758;6.106;2023-02-26T01:00:12;5.03;;;1.80;;
73150;SDS011;61354;50.758;6.106;2023-02-26T01:02:39;5.70;;;2.05;;
73150;SDS011;61354;50.758;6.106;2023-02-26T01:05:05;5.50;;;1.92;;
73150;SDS011;61354;50.758;6.106;2023-02-26T01:07:36;4.10;;;1.88;;
73150;SDS011;61354;50.758;6.106;2023-02-26T01:10:23;6.85;;;2.28;;
73150;SDS011;61354;50.758;6.106;2023-02-26T01:12:49;6.65;;;1.85;;
73150;SDS011;61354;50.758;6.106;2023-02-26T01:15:15;4.75;;;2.03;;
73150;SDS011;61354;50.758;6.106;2023-02-26T01:20:30;4.47;;;1.67;;
73150;SDS011;61354;50.758;6.106;2023-02-26T01:23:03;5.25;;;1.92;;
73150;SDS011;61354;50.758;6.106;2023-02-26T01:25:38;5.57;;;2.10;;
73150;SDS011;61354;50.758;6.106;2023-02-26T01:28:08;3.85;;;1.70;;
73150;SDS011;61354;50.758;6.106;2023-02-26T01:30:34;7.57;;;2.03;;
73150;SDS011;61354;50.758;6.106;2023-02-26T01:38:56;4.18;;;2.15;;
73150;SDS011;61354;50.758;6.106;2023-02-26T01:43:34;5.00;;;2.22;;
73150;SDS011;61354;50.758;6.106;2023-02-26T01:46:21;4.95;;;2.03;;
73150;SDS011;61354;50.758;6.106;2023-02-26T01:48:48;5.20;;;2.05;;
73150;SDS011;61354;50.758;6.106;2023-02-26T01:53:41;5.05;;;2.05;;
73150;SDS011;61354;50.758;6.106;2023-02-26T01:56:17;3.05;;;1.95;;
73150;SDS011;61354;50.758;6.106;2023-02-26T01:58:44;5.18;;;1.70;;
73150;SDS011;61354;50.758;6.106;2023-02-26T02:01:13;6.72;;;2.25;;
73150;SDS011;61354;50.758;6.106;2023-02-26T02:03:39;8.55;;;2.72;;
73150;SDS011;61354;50.758;6.106;2023-02-26T02:06:15;4.65;;;1.75;;
73150;SDS011;61354;50.758;6.106;2023-02-26T02:08:43;3.30;;;1.80;;
73150;SDS011;61354;50.758;6.106;2023-02-26T02:11:10;4.43;;;2.28;;
73150;SDS011;61354;50.758;6.106;2023-02-26T02:13:40;5.32;;;2.05;;
73150;SDS011;61354;50.758;6.106;2023-02-26T02:18:41;4.20;;;1.58;;
73150;SDS011;61354;50.758;6.106;2023-02-26T02:30:03;3.53;;;1.75;;
73150;SDS011;61354;50.758;6.106;2023-02-26T02:37:57;3.95;;;2.10;;
73150;SDS011;61354;50.758;6.106;2023-02-26T02:40:30;2.67;;;1.52;;
73150;SDS011;61354;50.758;6.106;2023-02-26T02:43:00;6.47;;;1.77;;
73150;SDS011;61354;50.758;6.106;2023-02-26T02:45:33;2.55;;;1.33;;
73150;SDS011;61354;50.758;6.106;2023-02-26T02:48:15;3.72;;;1.50;;
73150;SDS011;61354;50.758;6.106;2023-02-26T02:51:11;4.00;;;1.48;;
73150;SDS011;61354;50.758;6.106;2023-02-26T02:53:43;2.58;;;1.40;;
73150;SDS011;61354;50.758;6.106;2023-02-26T02:58:49;3.55;;;1.50;;
73150;SDS011;61354;50.758;6.106;2023-02-26T03:01:18;2.70;;;1.33;;
73150;SDS011;61354;50.758;6.106;2023-02-26T03:04:07;2.95;;;1.60;;
73150;SDS011;61354;50.758;6.106;2023-02-26T03:06:33;4.57;;;1.38;;
73150;SDS011;61354;50.758;6.106;2023-02-26T03:08:59;5.07;;;1.83;;
73150;SDS011;61354;50.758;6.106;2023-02-26T03:11:26;3.33;;;1.60;;
73150;SDS011;61354;50.758;6.106;2023-02-26T03:13:51;3.33;;;1.77;;
73150;SDS011;61354;50.758;6.106;2023-02-26T03:18:57;6.05;;;1.83;;
73150;SDS011;61354;50.758;6.106;2023-02-26T03:24:12;1.98;;;1.40;;
73150;SDS011;61354;50.758;6.106;2023-02-26T03:26:45;3.67;;;1.42;;
73150;SDS011;61354;50.758;6.106;2023-02-26T03:29:39;1.90;;;1.13;;
73150;SDS011;61354;50.758;6.106;2023-02-26T03:32:24;2.95;;;1.63;;
73150;SDS011;61354;50.758;6.106;2023-02-26T03:35:11;5.05;;;1.67;;
73150;SDS011;61354;50.758;6.106;2023-02-26T03:37:45;2.88;;;1.30;;
73150;SDS011;61354;50.758;6.106;2023-02-26T03:40:34;3.22;;;1.27;;
73150;SDS011;61354;50.758;6.106;2023-02-26T03:43:09;5.90;;;1.65;;
73150;SDS011;61354;50.758;6.106;2023-02-26T03:45:40;2.55;;;1.17;;
73150;SDS011;61354;50.758;6.106;2023-02-26T03:48:10;5.63;;;1.50;;
73150;SDS011;61354;50.758;6.106;2023-02-26T03:50:41;3.97;;;1.45;;
73150;SDS011;61354;50.758;6.106;2023-02-26T03:53:11;3.35;;;1.33;;
73150;SDS011;61354;50.758;6.106;2023-02-26T03:55:44;4.07;;;1.73;;
73150;SDS011;61354;50.758;6.106;2023-02-26T03:58:21;3.65;;;0.95;;
73150;SDS011;61354;50.758;6.106;2023-02-26T04:00:49;5.70;;;1.27;;
73150;SDS011;61354;50.758;6.106;2023-02-26T04:03:28;3.13;;;1.30;;
73150;SDS011;61354;50.758;6.106;2023-02-26T04:05:57;2.70;;;1.38;;
73150;SDS011;61354;50.758;6.106;2023-02-26T04:08:23;1.42;;;1.13;;
73150;SDS011;61354;50.758;6.106;2023-02-26T04:10:54;4.10;;;1.23;;
73150;SDS011;61354;50.758;6.106;2023-02-26T04:13:22;2.90;;;1.27;;
73150;SDS011;61354;50.758;6.106;2023-02-26T04:15:48;3.88;;;1.35;;
73150;SDS011;61354;50.758;6.106;2023-02-26T04:18:13;3.13;;;1.42;;
73150;SDS011;61354;50.758;6.106;2023-02-26T04:20:39;4.00;;;1.52;;
73150;SDS011;61354;50.758;6.106;2023-02-26T04:23:05;4.47;;;1.65;;
73150;SDS011;61354;50.758;6.106;2023-02-26T04:25:30;3.75;;;1.10;;
73150;SDS011;61354;50.758;6.106;2023-02-26T04:27:56;4.30;;;1.30;;
73150;SDS011;61354;50.758;6.106;2023-02-26T04:30:21;2.50;;;1.35;;
73150;SDS011;61354;50.758;6.106;2023-02-26T04:32:47;3.35;;;1.60;;
73150;SDS011;61354;50.758;6.106;2023-02-26T04:35:13;5.38;;;1.50;;
73150;SDS011;61354;50.758;6.106;2023-02-26T04:37:38;3.60;;;1.40;;
73150;SDS011;61354;50.758;6.106;2023-02-26T04:40:04;1.45;;;1.05;;
73150;SDS011;61354;50.758;6.106;2023-02-26T04:42:30;2.78;;;1.45;;
73150;SDS011;61354;50.758;6.106;2023-02-26T04:44:56;2.78;;;1.10;;
73150;SDS011;61354;50.758;6.106;2023-02-26T04:47:21;2.35;;;1.42;;
73150;SDS011;61354;50.758;6.106;2023-02-26T04:49:47;2.13;;;1.15;;
73150;SDS011;61354;50.758;6.106;2023-02-26T04:52:12;3.95;;;1.48;;
73150;SDS011;61354;50.758;6.106;2023-02-26T04:54:38;1.98;;;1.00;;
73150;SDS011;61354;50.758;6.106;2023-02-26T04:57:05;1.88;;;1.10;;
73150;SDS011;61354;50.758;6.106;2023-02-26T04:59:31;2.97;;;1.73;;
73150;SDS011;61354;50.758;6.106;2023-02-26T05:01:56;1.38;;;0.95;;
73150;SDS011;61354;50.758;6.106;2023-02-26T05:04:23;4.18;;;1.42;;
73150;SDS011;61354;50.758;6.106;2023-02-26T05:06:49;2.92;;;1.25;;
73150;SDS011;61354;50.758;6.106;2023-02-26T05:09:14;4.40;;;1.60;;
73150;SDS011;61354;50.758;6.106;2023-02-26T05:11:40;2.33;;;1.17;;
73150;SDS011;61354;50.758;6.106;2023-02-26T05:14:06;3.83;;;1.40;;
73150;SDS011;61354;50.758;6.106;2023-02-26T05:16:31;2.72;;;1.13;;
73150;SDS011;61354;50.758;6.106;2023-02-26T05:18:57;2.10;;;1.25;;
73150;SDS011;61354;50.758;6.106;2023-02-26T05:21:23;2.28;;;1.30;;
73150;SDS011;61354;50.758;6.106;2023-02-26T05:23:48;2.42;;;1.33;;
73150;SDS011;61354;50.758;6.106;2023-02-26T05:26:14;2.25;;;1.10;;
73150;SDS011;61354;50.758;6.106;2023-02-26T05:28:39;2.60;;;1.25;;
73150;SDS011;61354;50.758;6.106;2023-02-26T05:31:05;3.25;;;1.50;;
73150;SDS011;61354;50.758;6.106;2023-02-26T05:33:31;4.63;;;1.27;;
73150;SDS011;61354;50.758;6.106;2023-02-26T05:35:57;2.05;;;1.15;;
73150;SDS011;61354;50.758;6.106;2023-02-26T05:38:22;2.25;;;0.98;;
73150;SDS011;61354;50.758;6.106;2023-02-26T05:40:48;2.70;;;1.50;;
73150;SDS011;61354;50.758;6.106;2023-02-26T05:43:14;3.30;;;1.50;;
73150;SDS011;61354;50.758;6.106;2023-02-26T05:45:39;3.22;;;1.40;;
73150;SDS011;61354;50.758;6.106;2023-02-26T05:48:05;2.65;;;0.95;;
73150;SDS011;61354;50.758;6.106;2023-02-26T05:50:31;3.78;;;1.10;;
73150;SDS011;61354;50.758;6.106;2023-02-26T05:52:57;3.67;;;1.45;;
73150;SDS011;61354;50.758;6.106;2023-02-26T05:55:23;4.22;;;1.70;;
73150;SDS011;61354;50.758;6.106;2023-02-26T05:57:48;2.30;;;0.88;;
73150;SDS011;61354;50.758;6.106;2023-02-26T06:00:14;2.03;;;1.05;;
73150;SDS011;61354;50.758;6.106;2023-02-26T06:02:40;3.60;;;1.00;;
73150;SDS011;61354;50.758;6.106;2023-02-26T06:05:06;1.77;;;0.98;;
73150;SDS011;61354;50.758;6.106;2023-02-26T06:07:35;2.35;;;1.05;;
73150;SDS011;61354;50.758;6.106;2023-02-26T06:10:01;2.13;;;1.17;;
73150;SDS011;61354;50.758;6.106;2023-02-26T06:12:27;2.10;;;1.15;;
73150;SDS011;61354;50.758;6.106;2023-02-26T06:14:52;2.38;;;1.20;;
73150;SDS011;61354;50.758;6.106;2023-02-26T06:17:18;2.75;;;1.45;;
73150;SDS011;61354;50.758;6.106;2023-02-26T06:19:43;3.50;;;1.23;;
73150;SDS011;61354;50.758;6.106;2023-02-26T06:22:09;2.60;;;1.05;;
73150;SDS011;61354;50.758;6.106;2023-02-26T06:24:35;2.63;;;1.20;;
73150;SDS011;61354;50.758;6.106;2023-02-26T06:27:01;2.47;;;1.20;;
73150;SDS011;61354;50.758;6.106;2023-02-26T06:29:26;5.43;;;1.40;;
73150;SDS011;61354;50.758;6.106;2023-02-26T06:31:52;2.13;;;1.17;;
73150;SDS011;61354;50.758;6.106;2023-02-26T06:34:17;4.18;;;1.42;;
73150;SDS011;61354;50.758;6.106;2023-02-26T06:36:43;2.08;;;1.00;;
73150;SDS011;61354;50.758;6.106;2023-02-26T06:39:08;1.55;;;1.00;;
73150;SDS011;61354;50.758;6.106;2023-02-26T06:41:36;3.55;;;1.23;;
73150;SDS011;61354;50.758;6.106;2023-02-26T06:44:02;3.83;;;1.48;;
73150;SDS011;61354;50.758;6.106;2023-02-26T06:46:28;2.15;;;1.27;;
73150;SDS011;61354;50.758;6.106;2023-02-26T06:48:53;3.20;;;1.23;;
73150;SDS011;61354;50.758;6.106;2023-02-26T06:51:19;1.85;;;0.93;;
73150;SDS011;61354;50.758;6.106;2023-02-26T06:53:45;3.47;;;1.42;;
73150;SDS011;61354;50.758;6.106;2023-02-26T06:56:10;3.63;;;1.27;;
73150;SDS011;61354;50.758;6.106;2023-02-26T06:58:36;3.92;;;1.15;;
73150;SDS011;61354;50.758;6.106;2023-02-26T07:01:03;3.30;;;1.30;;
73150;SDS011;61354;50.758;6.106;2023-02-26T07:03:29;4.32;;;1.48;;
73150;SDS011;61354;50.758;6.106;2023-02-26T07:05:55;3.00;;;1.33;;
73150;SDS011;61354;50.758;6.106;2023-02-26T07:08:20;2.97;;;1.17;;
73150;SDS011;61354;50.758;6.106;2023-02-26T07:10:48;1.70;;;1.15;;
73150;SDS011;61354;50.758;6.106;2023-02-26T07:13:14;2.50;;;0.98;;
73150;SDS011;61354;50.758;6.106;2023-02-26T07:15:41;2.80;;;1.52;;
73150;SDS011;61354;50.758;6.106;2023-02-26T07:18:06;6.95;;;1.25;;
73150;SDS011;61354;50.758;6.106;2023-02-26T07:20:32;2.45;;;1.52;;
73150;SDS011;61354;50.758;6.106;2023-02-26T07:22:58;2.45;;;1.15;;
73150;SDS011;61354;50.758;6.106;2023-02-26T07:25:27;2.63;;;1.40;;
73150;SDS011;61354;50.758;6.106;2023-02-26T07:27:53;7.47;;;1.80;;
73150;SDS011;61354;50.758;6.106;2023-02-26T07:30:19;4.20;;;1.90;;
73150;SDS011;61354;50.758;6.106;2023-02-26T07:32:44;4.55;;;1.52;;
73150;SDS011;61354;50.758;6.106;2023-02-26T07:35:10;2.13;;;1.40;;
73150;SDS011;61354;50.758;6.106;2023-02-26T07:37:36;2.38;;;1.27;;
73150;SDS011;61354;50.758;6.106;2023-02-26T07:40:03;1.63;;;1.17;;
73150;SDS011;61354;50.758;6.106;2023-02-26T07:42:29;2.35;;;1.20;;
73150;SDS011;61354;50.758;6.106;2023-02-26T07:44:55;2.28;;;1.23;;
73150;SDS011;61354;50.758;6.106;2023-02-26T07:47:20;2.20;;;1.10;;
73150;SDS011;61354;50.758;6.106;2023-02-26T07:49:46;3.25;;;1.75;;
73150;SDS011;61354;50.758;6.106;2023-02-26T07:52:11;4.93;;;1.50;;
73150;SDS011;61354;50.758;6.106;2023-02-26T07:54:37;3.42;;;1.50;;
73150;SDS011;61354;50.758;6.106;2023-02-26T07:57:03;3.10;;;1.30;;
73150;SDS011;61354;50.758;6.106;2023-02-26T07:59:29;2.42;;;1.35;;
73150;SDS011;61354;50.758;6.106;2023-02-26T08:01:54;3.58;;;1.65;;
73150;SDS011;61354;50.758;6.106;2023-02-26T08:04:21;4.63;;;1.25;;
73150;SDS011;61354;50.758;6.106;2023-02-26T08:06:47;2.58;;;1.40;;
73150;SDS011;61354;50.758;6.106;2023-02-26T08:09:12;3.38;;;1.60;;
73150;SDS011;61354;50.758;6.106;2023-02-26T08:11:38;2.33;;;1.20;;
73150;SDS011;61354;50.758;6.106;2023-02-26T08:14:05;2.65;;;1.23;;
73150;SDS011;61354;50.758;6.106;2023-02-26T08:16:31;3.80;;;1.52;;
73150;SDS011;61354;50.758;6.106;2023-02-26T08:18:57;4.43;;;1.42;;
73150;SDS011;61354;50.758;6.106;2023-02-26T08:21:24;1.77;;;1.27;;
73150;SDS011;61354;50.758;6.106;2023-02-26T08:23:49;3.78;;;1.58;;
73150;SDS011;61354;50.758;6.106;2023-02-26T08:26:16;6.57;;;1.50;;
73150;SDS011;61354;50.758;6.106;2023-02-26T08:28:42;3.45;;;1.35;;
73150;SDS011;61354;50.758;6.106;2023-02-26T08:31:08;4.53;;;1.45;;
73150;SDS011;61354;50.758;6.106;2023-02-26T08:33:34;2.78;;;1.23;;
73150;SDS011;61354;50.758;6.106;2023-02-26T08:35:59;8.18;;;1.33;;
73150;SDS011;61354;50.758;6.106;2023-02-26T08:38:26;4.63;;;1.27;;
73150;SDS011;61354;50.758;6.106;2023-02-26T08:40:53;1.58;;;1.42;;
73150;SDS011;61354;50.758;6.106;2023-02-26T08:43:19;4.22;;;1.40;;
73150;SDS011;61354;50.758;6.106;2023-02-26T08:45:45;3.25;;;1.42;;
73150;SDS011;61354;50.758;6.106;2023-02-26T08:48:12;4.43;;;1.35;;
73150;SDS011;61354;50.758;6.106;2023-02-26T08:50:37;4.15;;;1.63;;
73150;SDS011;61354;50.758;6.106;2023-02-26T08:53:04;3.47;;;1.27;;
73150;SDS011;61354;50.758;6.106;2023-02-26T08:55:30;4.38;;;1.48;;
73150;SDS011;61354;50.758;6.106;2023-02-26T08:57:56;2.10;;;1.50;;
73150;SDS011;61354;50.758;6.106;2023-02-26T09:00:22;3.67;;;1.83;;
73150;SDS011;61354;50.758;6.106;2023-02-26T09:02:47;4.18;;;1.40;;
73150;SDS011;61354;50.758;6.106;2023-02-26T09:05:13;2.25;;;1.30;;
73150;SDS011;61354;50.758;6.106;2023-02-26T09:07:40;5.03;;;1.55;;
73150;SDS011;61354;50.758;6.106;2023-02-26T09:10:07;4.22;;;2.00;;
73150;SDS011;61354;50.758;6.106;2023-02-26T09:12:35;2.55;;;1.40;;
73150;SDS011;61354;50.758;6.106;2023-02-26T09:15:02;2.05;;;1.45;;
73150;SDS011;61354;50.758;6.106;2023-02-26T09:17:29;2.67;;;1.80;;
73150;SDS011;61354;50.758;6.106;2023-02-26T09:19:55;2.63;;;1.52;;
73150;SDS011;61354;50.758;6.106;2023-02-26T09:22:21;3.28;;;1.67;;
73150;SDS011;61354;50.758;6.106;2023-02-26T09:24:46;4.20;;;1.65;;
73150;SDS011;61354;50.758;6.106;2023-02-26T09:27:12;5.32;;;2.80;;
73150;SDS011;61354;50.758;6.106;2023-02-26T09:29:37;2.40;;;1.45;;
73150;SDS011;61354;50.758;6.106;2023-02-26T09:32:03;2.38;;;1.42;;
73150;SDS011;61354;50.758;6.106;2023-02-26T09:34:36;5.47;;;1.45;;
73150;SDS011;61354;50.758;6.106;2023-02-26T09:37:03;3.85;;;1.48;;
73150;SDS011;61354;50.758;6.106;2023-02-26T09:39:30;3.63;;;1.35;;
73150;SDS011;61354;50.758;6.106;2023-02-26T09:41:56;2.72;;;1.50;;
73150;SDS011;61354;50.758;6.106;2023-02-26T09:44:32;3.42;;;1.75;;
73150;SDS011;61354;50.758;6.106;2023-02-26T09:47:16;2.70;;;1.65;;
73150;SDS011;61354;50.758;6.106;2023-02-26T09:52:20;4.07;;;1.52;;
73150;SDS011;61354;50.758;6.106;2023-02-26T09:54:59;2.72;;;1.70;;
73150;SDS011;61354;50.758;6.106;2023-02-26T09:57:30;2.58;;;1.25;;
73150;SDS011;61354;50.758;6.106;2023-02-26T09:59:58;3.97;;;1.75;;
73150;SDS011;61354;50.758;6.106;2023-02-26T10:05:10;4.05;;;1.70;;
73150;SDS011;61354;50.758;6.106;2023-02-26T10:13:00;1.45;;;1.05;;
73150;SDS011;61354;50.758;6.106;2023-02-26T10:26:28;4.18;;;1.60;;
73150;SDS011;61354;50.758;6.106;2023-02-26T10:32:23;2.42;;;1.33;;
73150;SDS011;61354;50.758;6.106;2023-02-26T10:35:00;1.83;;;1.25;;
73150;SDS011;61354;50.758;6.106;2023-02-26T10:42:42;3.80;;;1.30;;
73150;SDS011;61354;50.758;6.106;2023-02-26T10:50:13;2.03;;;1.40;;
73150;SDS011;61354;50.758;6.106;2023-02-26T10:52:41;2.47;;;1.10;;
73150;SDS011;61354;50.758;6.106;2023-02-26T11:00:40;2.63;;;1.10;;
73150;SDS011;61354;50.758;6.106;2023-02-26T11:03:09;4.85;;;1.60;;
73150;SDS011;61354;50.758;6.106;2023-02-26T11:05:40;2.00;;;1.10;;
73150;SDS011;61354;50.758;6.106;2023-02-26T11:08:15;2.35;;;1.17;;
73150;SDS011;61354;50.758;6.106;2023-02-26T11:10:49;1.75;;;1.17;;
73150;SDS011;61354;50.758;6.106;2023-02-26T11:13:17;4.88;;;1.65;;
73150;SDS011;61354;50.758;6.106;2023-02-26T11:15:45;3.28;;;1.52;;
73150;SDS011;61354;50.758;6.106;2023-02-26T11:18:14;1.50;;;1.05;;
73150;SDS011;61354;50.758;6.106;2023-02-26T11:20:44;4.90;;;1.42;;
73150;SDS011;61354;50.758;6.106;2023-02-26T11:23:12;3.75;;;1.52;;
73150;SDS011;61354;50.758;6.106;2023-02-26T11:25:41;2.20;;;1.00;;
73150;SDS011;61354;50.758;6.106;2023-02-26T11:28:22;2.15;;;1.20;;
73150;SDS011;61354;50.758;6.106;2023-02-26T11:30:54;1.15;;;0.75;;
73150;SDS011;61354;50.758;6.106;2023-02-26T11:35:59;2.20;;;1.20;;
73150;SDS011;61354;50.758;6.106;2023-02-26T11:38:27;1.33;;;1.23;;
73150;SDS011;61354;50.758;6.106;2023-02-26T11:40:54;3.45;;;1.38;;
73150;SDS011;61354;50.758;6.106;2023-02-26T11:43:22;2.47;;;1.10;;
73150;SDS011;61354;50.758;6.106;2023-02-26T11:45:53;1.00;;;0.90;;
73150;SDS011;61354;50.758;6.106;2023-02-26T11:48:26;1.58;;;1.25;;
73150;SDS011;61354;50.758;6.106;2023-02-26T11:50:58;5.18;;;1.30;;
73150;SDS011;61354;50.758;6.106;2023-02-26T11:53:34;3.63;;;1.20;;
73150;SDS011;61354;50.758;6.106;2023-02-26T11:56:03;3.60;;;1.50;;
73150;SDS011;61354;50.758;6.106;2023-02-26T11:58:36;1.20;;;1.00;;
73150;SDS011;61354;50.758;6.106;2023-02-26T12:01:03;2.53;;;1.30;;
73150;SDS011;61354;50.758;6.106;2023-02-26T12:05:59;1.08;;;0.98;;
73150;SDS011;61354;50.758;6.106;2023-02-26T12:14:19;2.08;;;1.38;;
73150;SDS011;61354;50.758;6.106;2023-02-26T12:16:56;2.08;;;1.55;;
73150;SDS011;61354;50.758;6.106;2023-02-26T12:30:51;1.35;;;1.10;;
73150;SDS011;61354;50.758;6.106;2023-02-26T12:43:55;3.03;;;1.40;;
73150;SDS011;61354;50.758;6.106;2023-02-26T13:19:59;1.55;;;0.98;;
73150;SDS011;61354;50.758;6.106;2023-02-26T13:22:31;1.67;;;1.00;;
73150;SDS011;61354;50.758;6.106;2023-02-26T13:25:38;3.03;;;1.30;;
73150;SDS011;61354;50.758;6.106;2023-02-26T13:28:29;2.35;;;1.20;;
73150;SDS011;61354;50.758;6.106;2023-02-26T13:30:55;0.85;;;0.85;;
73150;SDS011;61354;50.758;6.106;2023-02-26T13:33:27;0.90;;;0.85;;
73150;SDS011;61354;50.758;6.106;2023-02-26T13:35:56;2.70;;;1.13;;
73150;SDS011;61354;50.758;6.106;2023-02-26T13:38:27;1.15;;;0.80;;
73150;SDS011;61354;50.758;6.106;2023-02-26T13:41:24;2.10;;;1.00;;
73150;SDS011;61354;50.758;6.106;2023-02-26T13:51:47;1.10;;;1.00;;
73150;SDS011;61354;50.758;6.106;2023-02-26T13:57:04;1.52;;;0.95;;
73150;SDS011;61354;50.758;6.106;2023-02-26T14:02:48;1.42;;;0.90;;
73150;SDS011;61354;50.758;6.106;2023-02-26T14:05:06;1.42;;;1.02;;
73150;SDS011;61354;50.758;6.106;2023-02-26T14:07:46;1.00;;;0.90;;
73150;SDS011;61354;50.758;6.106;2023-02-26T14:10:24;1.75;;;0.85;;
73150;SDS011;61354;50.758;6.106;2023-02-26T14:13:01;1.17;;;0.90;;
73150;SDS011;61354;50.758;6.106;2023-02-26T14:15:42;1.48;;;0.98;;
73150;SDS011;61354;50.758;6.106;2023-02-26T14:18:30;1.40;;;1.10;;
73150;SDS011;61354;50.758;6.106;2023-02-26T14:21:36;1.58;;;0.80;;
73150;SDS011;61354;50.758;6.106;2023-02-26T14:26:35;0.70;;;0.70;;
73150;SDS011;61354;50.758;6.106;2023-02-26T14:34:30;2.22;;;1.17;;
73150;SDS011;61354;50.758;6.106;2023-02-26T14:37:02;2.60;;;1.02;;
73150;SDS011;61354;50.758;6.106;2023-02-26T14:42:26;1.65;;;0.90;;
73150;SDS011;61354;50.758;6.106;2023-02-26T14:45:07;2.08;;;0.93;;
73150;SDS011;61354;50.758;6.106;2023-02-26T14:47:45;2.63;;;1.10;;
73150;SDS011;61354;50.758;6.106;2023-02-26T14:50:16;2.10;;;0.90;;
73150;SDS011;61354;50.758;6.106;2023-02-26T14:52:56;3.72;;;1.00;;
73150;SDS011;61354;50.758;6.106;2023-02-26T15:01:04;2.40;;;1.30;;
73150;SDS011;61354;50.758;6.106;2023-02-26T15:06:45;2.88;;;1.17;;
73150;SDS011;61354;50.758;6.106;2023-02-26T15:09:29;1.95;;;1.20;;
73150;SDS011;61354;50.758;6.106;2023-02-26T15:23:38;1.40;;;0.90;;
73150;SDS011;61354;50.758;6.106;2023-02-26T15:25:44;0.93;;;0.93;;
73150;SDS011;61354;50.758;6.106;2023-02-26T15:28:14;2.05;;;0.93;;
73150;SDS011;61354;50.758;6.106;2023-02-26T15:30:49;2.15;;;1.05;;
73150;SDS011;61354;50.758;6.106;2023-02-26T15:33:16;1.48;;;0.82;;
73150;SDS011;61354;50.758;6.106;2023-02-26T15:35:44;1.40;;;0.93;;
73150;SDS011;61354;50.758;6.106;2023-02-26T15:38:13;2.08;;;1.00;;
73150;SDS011;61354;50.758;6.106;2023-02-26T15:40:38;1.15;;;0.95;;
73150;SDS011;61354;50.758;6.106;2023-02-26T15:43:05;2.30;;;1.00;;
73150;SDS011;61354;50.758;6.106;2023-02-26T15:45:37;3.25;;;1.20;;
73150;SDS011;61354;50.758;6.106;2023-02-26T15:48:06;2.17;;;1.10;;
73150;SDS011;61354;50.758;6.106;2023-02-26T15:50:38;2.28;;;0.93;;
73150;SDS011;61354;50.758;6.106;2023-02-26T15:53:07;1.33;;;0.88;;
73150;SDS011;61354;50.758;6.106;2023-02-26T15:55:46;2.63;;;1.20;;
73150;SDS011;61354;50.758;6.106;2023-02-26T15:58:17;2.85;;;1.27;;
73150;SDS011;61354;50.758;6.106;2023-02-26T16:00:50;3.03;;;1.40;;
73150;SDS011;61354;50.758;6.106;2023-02-26T16:03:23;1.70;;;0.90;;
73150;SDS011;61354;50.758;6.106;2023-02-26T16:05:52;3.05;;;0.82;;
73150;SDS011;61354;50.758;6.106;2023-02-26T16:08:19;2.47;;;1.20;;
73150;SDS011;61354;50.758;6.106;2023-02-26T16:10:44;1.63;;;1.00;;
73150;SDS011;61354;50.758;6.106;2023-02-26T16:13:13;1.38;;;1.00;;
73150;SDS011;61354;50.758;6.106;2023-02-26T16:15:41;1.27;;;0.95;;
73150;SDS011;61354;50.758;6.106;2023-02-26T16:18:10;1.67;;;1.00;;
73150;SDS011;61354;50.758;6.106;2023-02-26T16:20:44;2.40;;;1.30;;
73150;SDS011;61354;50.758;6.106;2023-02-26T16:23:13;2.63;;;1.38;;
73150;SDS011;61354;50.758;6.106;2023-02-26T16:26:01;2.70;;;1.08;;
73150;SDS011;61354;50.758;6.106;2023-02-26T16:28:32;1.73;;;1.00;;
73150;SDS011;61354;50.758;6.106;2023-02-26T16:31:13;1.42;;;0.90;;
73150;SDS011;61354;50.758;6.106;2023-02-26T16:33:48;4.32;;;1.33;;
73150;SDS011;61354;50.758;6.106;2023-02-26T16:36:29;1.85;;;1.05;;
73150;SDS011;61354;50.758;6.106;2023-02-26T16:41:30;2.97;;;1.50;;
73150;SDS011;61354;50.758;6.106;2023-02-26T16:43:59;2.00;;;1.20;;
73150;SDS011;61354;50.758;6.106;2023-02-26T16:51:31;3.30;;;2.00;;
73150;SDS011;61354;50.758;6.106;2023-02-26T16:54:03;5.45;;;2.33;;
73150;SDS011;61354;50.758;6.106;2023-02-26T16:56:33;3.40;;;1.60;;
73150;SDS011;61354;50.758;6.106;2023-02-26T16:59:04;3.17;;;1.40;;
73150;SDS011;61354;50.758;6.106;2023-02-26T17:02:13;1.88;;;1.20;;
73150;SDS011;61354;50.758;6.106;2023-02-26T17:04:43;2.42;;;1.30;;
73150;SDS011;61354;50.758;6.106;2023-02-26T17:09:55;2.80;;;1.50;;
73150;SDS011;61354;50.758;6.106;2023-02-26T17:12:27;2.70;;;1.55;;
73150;SDS011;61354;50.758;6.106;2023-02-26T17:15:10;3.25;;;1.42;;
73150;SDS011;61354;50.758;6.106;2023-02-26T17:17:40;3.42;;;1.40;;
73150;SDS011;61354;50.758;6.106;2023-02-26T17:20:05;1.08;;;0.93;;
73150;SDS011;61354;50.758;6.106;2023-02-26T17:22:31;4.90;;;1.52;;
73150;SDS011;61354;50.758;6.106;2023-02-26T17:24:57;5.10;;;1.33;;
73150;SDS011;61354;50.758;6.106;2023-02-26T17:27:26;3.88;;;1.60;;
73150;SDS011;61354;50.758;6.106;2023-02-26T17:29:55;4.90;;;1.80;;
73150;SDS011;61354;50.758;6.106;2023-02-26T17:32:22;6.28;;;2.70;;
73150;SDS011;61354;50.758;6.106;2023-02-26T17:34:51;5.00;;;2.58;;
73150;SDS011;61354;50.758;6.106;2023-02-26T17:37:17;2.80;;;1.65;;
73150;SDS011;61354;50.758;6.106;2023-02-26T17:39:43;3.45;;;1.58;;
73150;SDS011;61354;50.758;6.106;2023-02-26T17:42:10;3.00;;;1.67;;
73150;SDS011;61354;50.758;6.106;2023-02-26T17:44:37;2.05;;;1.23;;
73150;SDS011;61354;50.758;6.106;2023-02-26T17:47:02;4.40;;;1.60;;
73150;SDS011;61354;50.758;6.106;2023-02-26T17:49:28;5.13;;;1.65;;
73150;SDS011;61354;50.758;6.106;2023-02-26T17:51:54;4.88;;;2.17;;
73150;SDS011;61354;50.758;6.106;2023-02-26T17:54:19;4.20;;;2.15;;
73150;SDS011;61354;50.758;6.106;2023-02-26T17:56:45;4.50;;;2.10;;
73150;SDS011;61354;50.758;6.106;2023-02-26T17:59:10;3.33;;;2.03;;
73150;SDS011;61354;50.758;6.106;2023-02-26T18:01:37;6.80;;;2.67;;
73150;SDS011;61354;50.758;6.106;2023-02-26T18:04:03;4.93;;;2.10;;
73150;SDS011;61354;50.758;6.106;2023-02-26T18:06:31;4.03;;;2.10;;
73150;SDS011;61354;50.758;6.106;2023-02-26T18:08:59;4.72;;;1.65;;
73150;SDS011;61354;50.758;6.106;2023-02-26T18:11:25;3.30;;;2.00;;
73150;SDS011;61354;50.758;6.106;2023-02-26T18:13:51;4.22;;;2.05;;
73150;SDS011;61354;50.758;6.106;2023-02-26T18:16:18;3.75;;;2.05;;
73150;SDS011;61354;50.758;6.106;2023-02-26T18:18:46;3.28;;;1.83;;
73150;SDS011;61354;50.758;6.106;2023-02-26T18:21:12;3.65;;;1.90;;
73150;SDS011;61354;50.758;6.106;2023-02-26T18:23:39;5.45;;;2.40;;
73150;SDS011;61354;50.758;6.106;2023-02-26T18:26:05;5.88;;;3.08;;
73150;SDS011;61354;50.758;6.106;2023-02-26T18:28:31;10.38;;;4.45;;
73150;SDS011;61354;50.758;6.106;2023-02-26T18:30:56;10.52;;;5.43;;